createdAt,value
2023-02-03T00:03:43.514Z,11.50
2023-02-03T00:14:31.032Z,13.40
2023-02-03T00:25:24.870Z,11.40
2023-02-03T00:36:09.062Z,10.70
2023-02-03T00:47:02.635Z,13.40
2023-02-03T00:58:11.250Z,23.50
2023-02-03T01:09:06.342Z,11.60
2023-02-03T01:20:11.524Z,11.30
2023-02-03T01:31:30.073Z,10.80
2023-02-03T01:42:14.690Z,12.20
2023-02-03T01:52:54.536Z,12.40
2023-02-03T02:03:44.990Z,12.40
2023-02-03T02:14:44.363Z,10.10
2023-02-03T02:25:31.545Z,9.20
2023-02-03T02:36:54.742Z,8.30
2023-02-03T02:48:04.458Z,11.30
2023-02-03T02:58:56.442Z,9.20
2023-02-03T03:09:17.712Z,15.80
2023-02-03T03:20:26.220Z,10.00
2023-02-03T03:31:41.036Z,9.20
2023-02-03T03:42:38.272Z,9.70
2023-02-03T03:53:22.167Z,7.40
2023-02-03T04:04:21.030Z,9.60
2023-02-03T04:15:11.389Z,9.30
2023-02-03T04:25:55.965Z,6.40
2023-02-03T04:36:25.688Z,8.20
2023-02-03T04:47:12.343Z,11.10
2023-02-03T04:58:11.933Z,15.20
2023-02-03T05:09:14.608Z,8.60
2023-02-03T05:19:38.935Z,7.70
2023-02-03T05:30:14.795Z,10.80
2023-02-03T05:40:57.408Z,12.70
2023-02-03T05:51:31.235Z,13.90
2023-02-03T06:02:27.154Z,14.40
2023-02-03T06:13:05.850Z,21.60
2023-02-03T06:23:53.159Z,20.00
2023-02-03T06:35:00.425Z,20.30
2023-02-03T06:45:37.874Z,22.70
2023-02-03T06:56:13.918Z,19.10
2023-02-03T07:06:52.994Z,21.50
2023-02-03T07:17:29.472Z,15.50
2023-02-03T07:28:14.196Z,9.60
2023-02-03T07:38:25.421Z,12.70
2023-02-03T07:49:18.651Z,9.20
2023-02-03T07:59:32.981Z,9.70
2023-02-03T08:09:37.101Z,9.10
2023-02-03T08:19:44.329Z,10.40
2023-02-03T08:30:08.072Z,8.10
2023-02-03T08:40:27.961Z,10.50
2023-02-03T08:50:37.595Z,8.50
2023-02-03T09:00:53.972Z,12.70
2023-02-03T09:11:26.692Z,9.20
2023-02-03T09:21:44.072Z,9.80
2023-02-03T09:32:07.508Z,15.20
2023-02-03T09:42:51.453Z,9.40
2023-02-03T09:53:31.221Z,9.70
2023-02-03T10:04:28.503Z,11.50
2023-02-03T10:15:54.153Z,12.60
2023-02-03T10:26:32.758Z,4.60
2023-02-03T10:37:03.551Z,4.30
2023-02-03T10:48:03.145Z,4.10
2023-02-03T11:08:35.080Z,6.90
2023-02-03T11:19:28.557Z,5.10
2023-02-03T11:30:18.509Z,4.00
2023-02-03T11:40:59.613Z,4.40
2023-02-03T12:03:15.821Z,4.20
2023-02-03T12:14:29.603Z,4.70
2023-02-03T12:26:06.250Z,5.70
2023-02-03T12:37:02.070Z,6.30
2023-02-03T12:47:52.115Z,3.90
2023-02-03T12:58:42.764Z,4.30
2023-02-03T13:09:44.700Z,4.60
2023-02-03T13:20:36.397Z,3.20
2023-02-03T13:31:40.729Z,4.20
2023-02-03T13:42:59.716Z,4.20
2023-02-03T13:53:53.265Z,5.00
2023-02-03T14:05:03.357Z,3.80
2023-02-03T14:15:28.722Z,4.20
2023-02-03T14:25:59.622Z,6.40
2023-02-03T14:36:31.431Z,4.20
2023-02-03T14:46:59.199Z,3.60
2023-02-03T14:57:30.874Z,3.20
2023-02-03T15:07:47.937Z,8.00
2023-02-03T15:18:19.868Z,6.00
2023-02-03T15:28:29.534Z,8.40
2023-02-03T15:38:42.428Z,7.00
2023-02-03T15:49:04.411Z,8.30
2023-02-03T15:59:30.432Z,7.80
2023-02-03T16:09:45.563Z,6.30
2023-02-03T16:20:34.308Z,9.10
2023-02-03T16:31:23.140Z,10.50
2023-02-03T16:41:45.844Z,14.20
2023-02-03T16:51:50.126Z,11.10
2023-02-03T17:01:54.288Z,11.80
2023-02-03T17:11:58.567Z,14.30
2023-02-03T17:22:02.715Z,15.60
2023-02-03T17:32:07.363Z,10.20
2023-02-03T18:02:55.489Z,21.10
2023-02-03T18:13:01.341Z,22.10
2023-02-03T18:23:05.609Z,13.60
2023-02-03T18:33:12.572Z,13.00
2023-02-03T18:43:19.246Z,8.10
2023-02-03T18:53:26.076Z,14.70
2023-02-03T19:03:32.336Z,19.60
2023-02-03T19:13:37.707Z,14.40
2023-02-03T19:23:56.309Z,12.50
2023-02-03T19:44:15.713Z,16.50
2023-02-03T19:54:26.540Z,12.80
2023-02-03T20:04:37.339Z,13.10
2023-02-03T20:14:48.981Z,11.40
2023-02-03T20:24:56.785Z,12.90
2023-02-03T20:35:07.416Z,12.80
2023-02-03T20:45:25.712Z,12.20
2023-02-03T20:55:32.793Z,10.10
2023-02-03T21:05:45.503Z,8.00
2023-02-03T21:16:06.306Z,7.30
2023-02-03T21:26:32.361Z,5.30
2023-02-03T21:36:39.391Z,5.50
2023-02-03T21:46:48.148Z,6.60
2023-02-03T21:56:55.517Z,8.10
2023-02-03T22:07:02.995Z,6.50
2023-02-03T22:17:08.290Z,6.10
2023-02-03T22:27:13.086Z,6.70
2023-02-03T22:37:17.075Z,7.80
2023-02-03T22:47:22.323Z,7.20
2023-02-03T22:57:26.290Z,4.90
2023-02-03T23:07:30.276Z,5.10
2023-02-03T23:17:37.114Z,8.30
2023-02-03T23:27:41.129Z,9.50
2023-02-03T23:37:45.823Z,6.00
2023-02-03T23:47:49.985Z,4.70
2023-02-03T23:58:16.123Z,5.40
